Time;durP1;ratioP1;P1;durP2;ratioP2;P2;SDS_P1;SDS_P2;PMS_P1;PMS_P2;Temp;Humidity;BMP_temperature;BMP_pressure;BME280_temperature;BME280_humidity;BME280_pressure;Samples;Min_cycle;Max_cycle;Signal;HPM_P1;HPM_P2
2023/11/26 00:00:12;;;;;;;3.57;3.07;;;;;;;2.28;100.00;151951.53;4987223;28;20919;-75
2023/11/26 00:02:39;;;;;;;5.20;3.40;;;;;;;2.32;100.00;151961.84;4988232;28;20939;-75
2023/11/26 00:05:07;;;;;;;3.37;3.07;;;;;;;2.29;100.00;151955.41;4985372;28;20465;-75
2023/11/26 00:07:33;;;;;;;4.63;4.13;;;;;;;2.35;100.00;151969.56;4987490;28;20450;-75
2023/11/26 00:10:00;;;;;;;6.30;3.97;;;;;;;2.38;100.00;151977.28;4968951;28;20469;-75
2023/11/26 00:12:27;;;;;;;5.70;4.53;;;;;;;2.37;100.00;151976.00;4988779;28;20995;-75
2023/11/26 00:14:54;;;;;;;5.13;4.03;;;;;;;2.32;100.00;151963.13;4987143;28;20831;-75
2023/11/26 00:17:22;;;;;;;5.53;4.30;;;;;;;2.31;100.00;151959.25;4990150;28;20528;-75
2023/11/26 00:19:49;;;;;;;4.30;3.43;;;;;;;2.29;100.00;151954.13;4988512;28;20456;-75
2023/11/26 00:22:15;;;;;;;4.53;3.60;;;;;;;2.27;100.00;151950.28;4979917;28;21003;-75
2023/11/26 00:24:42;;;;;;;4.80;3.60;;;;;;;2.28;100.00;151951.53;4985171;28;20527;-75
2023/11/26 00:27:09;;;;;;;4.80;3.87;;;;;;;2.28;100.00;151952.81;4992729;28;20457;-75
2023/11/26 00:29:40;;;;;;;7.13;4.27;;;;;;;2.27;100.00;151950.28;4987196;28;20480;-75
2023/11/26 00:32:07;;;;;;;4.50;3.63;;;;;;;2.26;100.00;151947.69;4967495;28;20466;-75
2023/11/26 00:34:35;;;;;;;9.60;4.17;;;;;;;2.28;100.00;151952.81;4985150;28;20461;-74
2023/11/26 00:37:02;;;;;;;3.73;2.83;;;;;;;2.26;100.00;151947.69;4985601;28;20548;-75
2023/11/26 00:39:29;;;;;;;5.40;4.00;;;;;;;2.23;100.00;151939.97;4980033;28;20482;-75
2023/11/26 00:41:56;;;;;;;7.20;3.67;;;;;;;2.21;100.00;151934.84;4989623;28;20441;-75
2023/11/26 00:44:25;;;;;;;8.10;3.80;;;;;;;2.24;100.00;151941.25;4986449;28;20915;-75
2023/11/26 00:46:52;;;;;;;5.30;4.10;;;;;;;2.22;100.00;151937.44;4985552;28;20556;-75
2023/11/26 00:49:18;;;;;;;7.43;3.90;;;;;;;2.23;100.00;151938.66;4987869;28;20473;-75
2023/11/26 00:51:46;;;;;;;5.90;4.27;;;;;;;2.22;100.00;151937.44;4979425;28;22195;-75
2023/11/26 00:54:13;;;;;;;5.47;4.23;;;;;;;2.24;100.00;151941.25;4985366;28;20485;-75
2023/11/26 00:56:39;;;;;;;6.10;3.83;;;;;;;2.26;100.00;151947.69;4986275;28;20492;-75
2023/11/26 00:59:06;;;;;;;5.67;3.43;;;;;;;2.28;100.00;151952.81;4987643;28;20802;-75
2023/11/26 01:01:33;;;;;;;6.73;4.33;;;;;;;2.24;100.00;151942.56;4953443;28;20446;-75
2023/11/26 01:03:59;;;;;;;4.50;3.70;;;;;;;2.23;100.00;151939.97;4978537;28;21000;-75
2023/11/26 01:06:26;;;;;;;4.90;3.77;;;;;;;2.23;100.00;151939.97;4991686;28;20446;-75
2023/11/26 01:08:54;;;;;;;6.67;3.70;;;;;;;2.23;100.00;151939.97;4987466;28;20991;-75
2023/11/26 01:11:20;;;;;;;6.90;4.17;;;;;;;2.24;100.00;151941.25;4989746;28;20445;-75
2023/11/26 01:13:47;;;;;;;11.73;4.30;;;;;;;2.23;100.00;151938.66;4987855;28;20460;-75
2023/11/26 01:16:13;;;;;;;5.13;3.37;;;;;;;2.21;100.00;151933.53;4968765;28;20438;-75
2023/11/26 01:18:40;;;;;;;3.87;3.00;;;;;;;2.18;100.00;151927.13;4985206;28;20453;-75
2023/11/26 01:21:07;;;;;;;4.83;3.33;;;;;;;2.16;100.00;151920.69;4979761;28;20440;-75
2023/11/26 01:23:33;;;;;;;6.70;3.90;;;;;;;2.15;100.00;151919.41;4975797;28;20466;-75
2023/11/26 01:26:02;;;;;;;5.67;3.70;;;;;;;2.17;100.00;151924.53;4987443;28;20995;-75
2023/11/26 01:28:29;;;;;;;5.83;3.77;;;;;;;2.18;100.00;151925.81;4984154;28;20801;-75
2023/11/26 01:30:55;;;;;;;5.33;3.87;;;;;;;2.14;100.00;151915.56;4985312;28;20469;-75
2023/11/26 01:33:23;;;;;;;4.73;3.40;;;;;;;2.13;100.00;151912.97;4985421;28;20488;-75
2023/11/26 01:35:49;;;;;;;4.80;3.70;;;;;;;2.11;100.00;151909.13;4990926;28;20440;-75
2023/11/26 01:38:16;;;;;;;4.47;3.30;;;;;;;2.12;100.00;151910.44;4990552;28;20452;-75
2023/11/26 01:40:42;;;;;;;4.93;4.10;;;;;;;2.10;100.00;151906.53;4991741;28;20480;-75
2023/11/26 01:43:10;;;;;;;7.00;3.40;;;;;;;2.07;100.00;151898.81;4988813;28;20454;-75
2023/11/26 01:45:37;;;;;;;5.80;3.03;;;;;;;2.07;100.00;151897.53;4991701;28;20452;-75
2023/11/26 01:48:04;;;;;;;4.67;3.67;;;;;;;2.07;100.00;151898.81;4985597;28;20493;-75
2023/11/26 01:50:31;;;;;;;5.17;3.97;;;;;;;2.08;100.00;151901.41;4992776;28;20572;-75
2023/11/26 01:52:58;;;;;;;4.37;2.97;;;;;;;2.11;100.00;151909.13;4988272;28;20489;-75
2023/11/26 01:55:25;;;;;;;5.10;3.13;;;;;;;2.11;100.00;151909.13;4986763;28;20449;-76
2023/11/26 01:57:52;;;;;;;5.07;3.03;;;;;;;2.12;100.00;151911.69;4973031;28;20516;-76
2023/11/26 02:00:21;;;;;;;4.93;3.47;;;;;;;2.12;100.00;151911.69;4990137;28;20438;-76
2023/11/26 02:02:48;;;;;;;4.80;3.30;;;;;;;2.11;100.00;151909.13;4989184;28;20453;-76
2023/11/26 02:05:15;;;;;;;4.40;3.10;;;;;;;2.11;100.00;151907.84;4985537;28;20562;-76
2023/11/26 02:07:42;;;;;;;5.80;3.70;;;;;;;2.12;100.00;151911.69;4985527;28;20458;-76
2023/11/26 02:10:09;;;;;;;4.83;3.30;;;;;;;2.09;100.00;151903.94;4972904;28;20480;-76
2023/11/26 02:12:36;;;;;;;4.60;3.67;;;;;;;2.10;100.00;151906.53;4991764;28;20437;-76
2023/11/26 02:15:04;;;;;;;4.77;3.73;;;;;;;2.07;100.00;151898.81;4991390;28;20488;-76
2023/11/26 02:17:32;;;;;;;3.60;2.83;;;;;;;2.05;100.00;151892.41;4989417;28;20506;-76
2023/11/26 02:20:03;;;;;;;7.97;3.60;;;;;;;2.00;100.00;151879.56;4994501;28;20458;-76
2023/11/26 02:22:29;;;;;;;7.57;4.40;;;;;;;2.01;100.00;151883.44;4972900;28;20500;-76
2023/11/26 02:24:58;;;;;;;4.87;3.50;;;;;;;1.98;100.00;151875.72;4989957;28;20964;-75
2023/11/26 02:27:25;;;;;;;4.60;3.20;;;;;;;1.94;100.00;151865.41;4988738;28;20441;-75
2023/11/26 02:29:51;;;;;;;5.00;3.50;;;;;;;1.91;100.00;151856.44;4987960;28;20461;-76
2023/11/26 02:32:18;;;;;;;5.00;3.33;;;;;;;1.90;100.00;151855.16;4988146;28;20512;-76
2023/11/26 02:34:44;;;;;;;6.40;3.13;;;;;;;1.89;100.00;151851.25;4989272;28;20461;-76
2023/11/26 02:37:11;;;;;;;4.33;2.80;;;;;;;1.88;100.00;151849.97;4970482;28;20469;-76
2023/11/26 02:39:38;;;;;;;4.47;2.80;;;;;;;1.86;100.00;151844.84;4992176;28;20449;-76
2023/11/26 02:42:06;;;;;;;3.60;2.87;;;;;;;1.82;100.00;151834.56;4992255;28;20867;-76
2023/11/26 02:44:33;;;;;;;5.03;2.70;;;;;;;1.77;100.00;151821.72;4988062;28;20466;-76
2023/11/26 02:47:01;;;;;;;3.50;2.50;;;;;;;1.70;100.00;151803.69;4996325;28;20560;-75
2023/11/26 02:49:27;;;;;;;3.40;2.40;;;;;;;1.71;100.00;151806.28;4991024;28;20481;-76
2023/11/26 02:51:54;;;;;;;3.00;2.13;;;;;;;1.69;100.00;151801.16;4995858;28;20460;-75
2023/11/26 02:54:21;;;;;;;4.40;2.80;;;;;;;1.64;100.00;151788.31;4987057;28;20488;-76
2023/11/26 02:56:48;;;;;;;2.90;2.30;;;;;;;1.61;100.00;151780.59;4991725;28;20449;-84
2023/11/26 02:59:16;;;;;;;2.90;1.80;;;;;;;1.62;100.00;151783.13;4973080;28;20445;-84
2023/11/26 03:01:44;;;;;;;2.93;1.77;;;;;;;1.59;100.00;151776.72;4990494;28;20477;-84
2023/11/26 03:04:13;;;;;;;3.90;2.17;;;;;;;1.58;100.00;151772.88;4987600;28;20466;-84
2023/11/26 03:06:41;;;;;;;3.00;2.23;;;;;;;1.59;100.00;151775.47;4990188;28;20664;-84
2023/11/26 03:09:19;;;;;;;3.10;2.23;;;;;;;1.59;100.00;151775.47;4988606;28;20914;-84
2023/11/26 03:14:33;;;;;;;3.00;1.90;;;;;;;1.59;100.00;151776.72;4988221;28;20453;-84
2023/11/26 03:16:59;;;;;;;2.10;1.27;;;;;;;1.59;100.00;151775.47;4973051;28;20453;-83
2023/11/26 03:19:26;;;;;;;3.67;2.17;;;;;;;1.61;100.00;151780.59;4988283;28;20459;-84
2023/11/26 03:21:54;;;;;;;2.50;2.03;;;;;;;1.62;100.00;151783.13;4992393;28;20461;-84
2023/11/26 03:24:21;;;;;;;4.13;2.10;;;;;;;1.60;100.00;151778.00;4991939;28;20457;-84
2023/11/26 03:26:48;;;;;;;2.27;1.73;;;;;;;1.61;100.00;151780.59;4988319;28;20457;-84
2023/11/26 03:29:14;;;;;;;4.53;2.00;;;;;;;1.61;100.00;151780.59;4969159;28;20556;-84
2023/11/26 03:31:42;;;;;;;3.83;1.93;;;;;;;1.57;100.00;151770.28;4988111;28;20453;-84
2023/11/26 03:34:09;;;;;;;3.27;2.20;;;;;;;1.55;100.00;151765.16;4988222;28;20457;-84
2023/11/26 03:36:36;;;;;;;2.97;1.63;;;;;;;1.54;100.00;151762.56;4997949;28;20453;-84
2023/11/26 03:39:04;;;;;;;2.53;1.67;;;;;;;1.50;100.00;151752.31;4987393;28;20461;-84
2023/11/26 03:41:31;;;;;;;1.70;1.20;;;;;;;1.48;100.00;151747.19;4990116;28;20521;-84
2023/11/26 03:43:57;;;;;;;2.50;1.87;;;;;;;1.48;100.00;151748.50;4992092;28;20445;-84
2023/11/26 03:46:24;;;;;;;2.40;1.50;;;;;;;1.48;100.00;151747.19;4988394;28;20449;-84
2023/11/26 03:48:52;;;;;;;3.57;1.70;;;;;;;1.50;100.00;151752.31;4988772;28;20473;-84
2023/11/26 03:51:20;;;;;;;3.00;2.47;;;;;;;1.49;100.00;151751.03;4990333;28;20480;-83
2023/11/26 03:53:48;;;;;;;2.70;1.50;;;;;;;1.48;100.00;151747.19;4976164;28;20458;-84
2023/11/26 03:56:15;;;;;;;2.40;1.30;;;;;;;1.51;100.00;151754.91;4989967;28;20496;-83
2023/11/26 03:58:41;;;;;;;4.53;1.87;;;;;;;1.54;100.00;151762.56;4974047;28;20840;-83
2023/11/26 04:01:10;;;;;;;2.10;1.40;;;;;;;1.57;100.00;151771.59;4987194;28;20980;-83
2023/11/26 04:03:36;;;;;;;2.40;1.40;;;;;;;1.58;100.00;151772.88;4991518;28;20457;-83
2023/11/26 04:06:07;;;;;;;2.70;1.37;;;;;;;1.57;100.00;151771.59;4971541;28;20461;-83
2023/11/26 04:08:34;;;;;;;3.00;1.70;;;;;;;1.62;100.00;151783.13;4991310;28;20465;-83
2023/11/26 04:11:00;;;;;;;2.67;1.70;;;;;;;1.62;100.00;151783.13;4994008;28;20465;-83
2023/11/26 04:13:27;;;;;;;3.13;1.30;;;;;;;1.61;100.00;151780.59;4993702;28;20461;-83
2023/11/26 04:15:57;;;;;;;2.53;1.77;;;;;;;1.63;100.00;151787.03;4985801;28;20489;-83
2023/11/26 04:18:24;;;;;;;2.13;1.30;;;;;;;1.64;100.00;151789.56;4984111;28;20991;-83
2023/11/26 04:20:51;;;;;;;1.70;1.50;;;;;;;1.64;100.00;151789.56;4995597;28;20525;-83
2023/11/26 04:23:19;;;;;;;2.80;1.67;;;;;;;1.67;100.00;151795.97;4990485;28;20443;-84
2023/11/26 04:25:46;;;;;;;1.70;1.20;;;;;;;1.67;100.00;151795.97;4985460;28;20458;-83
2023/11/26 04:28:13;;;;;;;2.10;1.30;;;;;;;1.67;100.00;151795.97;4986364;28;20456;-83
2023/11/26 04:30:39;;;;;;;2.70;1.53;;;;;;;1.67;100.00;151795.97;4994529;28;20477;-83
2023/11/26 04:33:07;;;;;;;2.07;1.33;;;;;;;1.64;100.00;151789.56;4982049;28;20465;-83
2023/11/26 04:35:34;;;;;;;1.67;1.10;;;;;;;1.65;100.00;151790.84;4987046;28;20466;-83
2023/11/26 04:38:00;;;;;;;1.77;0.97;;;;;;;1.67;100.00;151797.28;4986487;28;20474;-83
2023/11/26 04:40:28;;;;;;;3.03;1.40;;;;;;;1.64;100.00;151788.31;4986703;28;20464;-83
2023/11/26 04:42:55;;;;;;;3.17;1.70;;;;;;;1.64;100.00;151789.56;4991253;28;20454;-83
2023/11/26 04:45:22;;;;;;;2.80;1.90;;;;;;;1.61;100.00;151781.91;4987024;28;20465;-83
2023/11/26 04:47:48;;;;;;;2.53;1.70;;;;;;;1.60;100.00;151778.00;4988147;28;20467;-83
2023/11/26 04:50:15;;;;;;;2.43;1.60;;;;;;;1.62;100.00;151783.13;4987677;28;20832;-83
2023/11/26 04:52:42;;;;;;;2.20;1.70;;;;;;;1.62;100.00;151784.44;4988558;28;20512;-83
2023/11/26 04:55:09;;;;;;;2.20;1.40;;;;;;;1.63;100.00;151785.72;4984783;28;20779;-85
2023/11/26 04:57:37;;;;;;;2.43;2.00;;;;;;;1.63;100.00;151785.72;5000188;28;20807;-84
2023/11/26 05:00:06;;;;;;;2.17;1.83;;;;;;;1.62;100.00;151783.13;4997563;28;20464;-84
2023/11/26 05:02:32;;;;;;;3.00;1.57;;;;;;;1.63;100.00;151785.72;4983523;28;20446;-85
2023/11/26 05:05:00;;;;;;;2.00;1.40;;;;;;;1.62;100.00;151783.13;4981108;28;20458;-84
2023/11/26 05:07:36;;;;;;;1.70;1.30;;;;;;;1.60;100.00;151779.31;4982712;28;20449;-85
2023/11/26 05:10:05;;;;;;;3.07;2.20;;;;;;;1.59;100.00;151776.72;4988964;28;20540;-84
2023/11/26 05:12:32;;;;;;;2.27;1.70;;;;;;;1.60;100.00;151778.00;4988496;28;20825;-84
2023/11/26 05:15:00;;;;;;;6.33;1.70;;;;;;;1.60;100.00;151778.00;4990861;28;20824;-84
2023/11/26 05:17:27;;;;;;;2.20;1.73;;;;;;;1.60;100.00;151779.31;4964159;28;21028;-85
2023/11/26 05:19:53;;;;;;;1.60;1.50;;;;;;;1.62;100.00;151784.44;5000129;28;20460;-84
2023/11/26 05:22:20;;;;;;;3.17;1.90;;;;;;;1.63;100.00;151785.72;5007334;28;20453;-85
2023/11/26 05:24:47;;;;;;;3.13;1.50;;;;;;;1.62;100.00;151783.13;4998197;28;20555;-84
2023/11/26 05:27:13;;;;;;;2.53;1.73;;;;;;;1.63;100.00;151785.72;4997090;28;20461;-84
2023/11/26 05:29:40;;;;;;;2.73;1.57;;;;;;;1.62;100.00;151783.13;4988632;28;20467;-86
2023/11/26 05:32:08;;;;;;;2.50;1.27;;;;;;;1.61;100.00;151781.91;4985827;28;20449;-85
2023/11/26 05:34:36;;;;;;;2.03;1.50;;;;;;;1.62;100.00;151783.13;4990113;28;20445;-84
2023/11/26 05:37:03;;;;;;;3.50;1.70;;;;;;;1.62;100.00;151784.44;4977789;28;20452;-85
2023/11/26 05:39:30;;;;;;;2.33;1.57;;;;;;;1.64;100.00;151788.31;4994901;28;22595;-85
2023/11/26 05:41:56;;;;;;;2.20;1.53;;;;;;;1.64;100.00;151788.31;4982702;28;20442;-85
2023/11/26 05:44:23;;;;;;;1.60;1.20;;;;;;;1.63;100.00;151787.03;4996579;28;20460;-84
2023/11/26 05:46:50;;;;;;;1.90;1.30;;;;;;;1.61;100.00;151780.59;4992499;28;20462;-85
2023/11/26 05:49:17;;;;;;;1.63;1.33;;;;;;;1.61;100.00;151781.91;4999504;28;20465;-85
2023/11/26 05:51:44;;;;;;;2.17;1.40;;;;;;;1.57;100.00;151771.59;5007287;28;20484;-84
2023/11/26 05:54:11;;;;;;;3.77;1.60;;;;;;;1.55;100.00;151765.16;5013296;28;20572;-84
2023/11/26 05:56:38;;;;;;;2.10;1.33;;;;;;;1.54;100.00;151762.56;4995523;28;20562;-85
2023/11/26 05:59:04;;;;;;;2.27;1.87;;;;;;;1.52;100.00;151758.75;4993910;28;20468;-84
2023/11/26 06:01:31;;;;;;;2.30;1.37;;;;;;;1.49;100.00;151751.03;4991423;28;20457;-84
2023/11/26 06:03:58;;;;;;;3.70;1.90;;;;;;;1.49;100.00;151749.72;5000195;28;20813;-85
2023/11/26 06:06:26;;;;;;;3.47;2.17;;;;;;;1.50;100.00;151752.31;5000490;28;20448;-84
2023/11/26 06:08:52;;;;;;;2.03;1.57;;;;;;;1.47;100.00;151744.59;4982374;28;20462;-84
2023/11/26 06:11:19;;;;;;;1.70;1.43;;;;;;;1.46;100.00;151742.00;4999347;28;20484;-85
2023/11/26 06:13:45;;;;;;;2.60;1.70;;;;;;;1.46;100.00;151743.31;4991540;28;20464;-85
2023/11/26 06:16:12;;;;;;;2.10;1.60;;;;;;;1.45;100.00;151740.78;4999407;28;20450;-84
2023/11/26 06:18:38;;;;;;;2.37;1.63;;;;;;;1.45;100.00;151739.47;4997312;28;20879;-84
2023/11/26 06:21:05;;;;;;;3.10;1.60;;;;;;;1.45;100.00;151739.47;4996596;28;20469;-85
2023/11/26 06:23:33;;;;;;;1.77;1.60;;;;;;;1.46;100.00;151742.00;4997644;28;20481;-85
2023/11/26 06:26:00;;;;;;;2.93;1.67;;;;;;;1.46;100.00;151742.00;4997309;28;20444;-84
2023/11/26 06:28:26;;;;;;;2.60;1.83;;;;;;;1.48;100.00;151747.19;4995557;28;20466;-85
2023/11/26 06:30:53;;;;;;;2.63;1.83;;;;;;;1.50;100.00;151752.31;4981742;28;20476;-84
2023/11/26 06:33:20;;;;;;;3.67;2.60;;;;;;;1.53;100.00;151760.03;4998635;28;20814;-85
2023/11/26 06:35:46;;;;;;;3.23;2.43;;;;;;;1.54;100.00;151762.56;4996893;28;20462;-85
2023/11/26 06:38:14;;;;;;;3.60;2.17;;;;;;;1.54;100.00;151762.56;4996155;28;20524;-85
2023/11/26 06:40:42;;;;;;;3.47;2.00;;;;;;;1.55;100.00;151765.16;4998085;28;20619;-83
2023/11/26 06:43:09;;;;;;;2.23;1.77;;;;;;;1.58;100.00;151772.88;4995269;28;20472;-84
2023/11/26 06:45:36;;;;;;;2.80;2.20;;;;;;;1.59;100.00;151775.47;4965487;28;20488;-84
2023/11/26 06:48:02;;;;;;;2.30;1.70;;;;;;;1.59;100.00;151775.47;4989241;28;20458;-83
2023/11/26 06:50:29;;;;;;;4.57;2.00;;;;;;;1.61;100.00;151780.59;4993361;28;20472;-84
2023/11/26 06:52:56;;;;;;;3.37;2.60;;;;;;;1.61;100.00;151780.59;4993112;28;20979;-83
2023/11/26 06:55:22;;;;;;;2.73;2.40;;;;;;;1.63;100.00;151785.72;4994680;28;20448;-84
2023/11/26 06:57:50;;;;;;;2.60;1.93;;;;;;;1.64;100.00;151788.31;4975915;28;20557;-84
2023/11/26 07:00:18;;;;;;;2.07;1.73;;;;;;;1.63;100.00;151785.72;4988644;28;20963;-84
2023/11/26 07:02:55;;;;;;;2.50;1.77;;;;;;;1.61;100.00;151781.91;4972395;28;20941;-84
2023/11/26 07:05:22;;;;;;;5.70;1.80;;;;;;;1.61;100.00;151781.91;4994251;28;20452;-84
2023/11/26 07:07:48;;;;;;;3.57;1.90;;;;;;;1.62;100.00;151783.13;4995714;28;20460;-83
2023/11/26 07:10:15;;;;;;;3.63;2.43;;;;;;;1.61;100.00;151780.59;4992238;28;20480;-84
2023/11/26 07:12:42;;;;;;;4.10;2.30;;;;;;;1.60;100.00;151778.00;4982073;28;20812;-84
2023/11/26 07:15:11;;;;;;;2.73;2.10;;;;;;;1.61;100.00;151780.59;4996170;28;20460;-83
2023/11/26 07:17:37;;;;;;;2.73;2.40;;;;;;;1.63;100.00;151785.72;4992410;28;20472;-84
2023/11/26 07:20:05;;;;;;;2.60;2.00;;;;;;;1.65;100.00;151790.84;4998052;28;20819;-84
2023/11/26 07:22:31;;;;;;;8.17;3.33;;;;;;;1.68;100.00;151799.88;4987809;28;20823;-84
2023/11/26 07:24:59;;;;;;;3.67;2.27;;;;;;;1.71;100.00;151807.59;4995192;28;20468;-84
2023/11/26 07:27:25;;;;;;;2.70;2.07;;;;;;;1.72;100.00;151808.88;4990607;28;20453;-84
2023/11/26 07:29:52;;;;;;;6.97;2.60;;;;;;;1.74;100.00;151815.31;4996331;28;20516;-84
2023/11/26 07:32:20;;;;;;;2.97;2.10;;;;;;;1.76;100.00;151819.13;4991833;28;20476;-84
2023/11/26 07:34:47;;;;;;;3.33;2.37;;;;;;;1.79;100.00;151828.16;4992106;28;20441;-84
2023/11/26 07:37:13;;;;;;;2.87;2.20;;;;;;;1.82;100.00;151834.56;4991448;28;20464;-84
2023/11/26 07:39:40;;;;;;;3.97;2.83;;;;;;;1.86;100.00;151844.84;4994028;28;21009;-84
2023/11/26 07:42:07;;;;;;;7.17;2.30;;;;;;;1.88;100.00;151848.72;4988281;28;20471;-83
2023/11/26 07:44:34;;;;;;;3.00;2.27;;;;;;;1.90;100.00;151855.16;4997303;28;20466;-83
2023/11/26 07:47:01;;;;;;;5.50;3.00;;;;;;;1.93;100.00;151862.88;4994311;28;20476;-84
2023/11/26 07:49:31;;;;;;;3.90;2.60;;;;;;;1.96;100.00;151870.53;4989895;28;20512;-84
2023/11/26 07:51:57;;;;;;;3.30;2.40;;;;;;;1.97;100.00;151873.13;4992857;28;20481;-84
2023/11/26 07:54:24;;;;;;;2.50;2.00;;;;;;;1.98;100.00;151875.72;4986937;28;20485;-85
2023/11/26 07:56:50;;;;;;;6.90;2.63;;;;;;;2.01;100.00;151883.44;4986783;28;20461;-84
2023/11/26 07:59:17;;;;;;;3.50;2.60;;;;;;;2.03;100.00;151888.56;4996122;28;20463;-85
2023/11/26 08:01:44;;;;;;;2.50;1.73;;;;;;;2.05;100.00;151892.41;5002447;28;20453;-85
2023/11/26 08:04:12;;;;;;;5.23;2.27;;;;;;;2.05;100.00;151893.69;5000229;28;20476;-84
2023/11/26 08:06:42;;;;;;;3.00;2.00;;;;;;;2.08;100.00;151901.41;4992176;28;20448;-84
2023/11/26 08:09:10;;;;;;;3.70;2.07;;;;;;;2.09;100.00;151903.94;4993321;28;20453;-84
2023/11/26 08:11:43;;;;;;;4.53;2.00;;;;;;;2.08;100.00;151901.41;4967002;28;20564;-85
2023/11/26 08:14:12;;;;;;;8.03;2.23;;;;;;;2.09;100.00;151903.94;4994812;28;20559;-85
2023/11/26 08:16:39;;;;;;;3.57;2.17;;;;;;;2.10;100.00;151906.53;4992440;28;20817;-85
2023/11/26 08:19:11;;;;;;;3.10;2.20;;;;;;;2.12;100.00;151911.69;4991032;28;20457;-84
2023/11/26 08:21:40;;;;;;;4.00;2.57;;;;;;;2.14;100.00;151916.84;4997791;28;20468;-85
2023/11/26 08:24:15;;;;;;;4.77;2.20;;;;;;;2.16;100.00;151921.97;4993339;28;21324;-84
2023/11/26 08:26:43;;;;;;;3.57;2.43;;;;;;;2.18;100.00;151927.13;4992589;28;20511;-85
2023/11/26 08:29:10;;;;;;;4.23;2.93;;;;;;;2.22;100.00;151937.44;4994868;28;20517;-85
2023/11/26 08:31:39;;;;;;;4.43;3.03;;;;;;;2.25;100.00;151943.84;4979256;28;20484;-85
2023/11/26 08:34:07;;;;;;;7.80;3.83;;;;;;;2.25;100.00;151945.09;4990493;28;21039;-85
2023/11/26 08:36:35;;;;;;;4.77;3.20;;;;;;;2.27;100.00;151950.28;4995394;28;20440;-85
2023/11/26 08:39:04;;;;;;;7.47;3.67;;;;;;;2.29;100.00;151954.13;4991514;28;20448;-83
2023/11/26 08:41:31;;;;;;;4.40;3.07;;;;;;;2.31;100.00;151960.53;4983037;28;20780;-83
2023/11/26 08:43:58;;;;;;;4.90;3.20;;;;;;;2.33;100.00;151964.44;4993536;28;20468;-83
2023/11/26 08:46:26;;;;;;;4.73;3.07;;;;;;;2.35;100.00;151970.84;4996861;28;20535;-85
2023/11/26 08:48:53;;;;;;;4.83;3.93;;;;;;;2.39;100.00;151981.13;4989572;28;20450;-84
2023/11/26 08:51:20;;;;;;;5.60;4.33;;;;;;;2.41;100.00;151984.97;4993728;28;20469;-84
2023/11/26 08:53:46;;;;;;;5.40;4.03;;;;;;;2.44;100.00;151993.97;4994460;28;20835;-84
2023/11/26 08:56:15;;;;;;;6.47;3.63;;;;;;;2.47;100.00;152001.69;4989070;28;20453;-84
2023/11/26 08:58:42;;;;;;;4.47;3.47;;;;;;;2.53;100.00;152015.84;4986429;28;20469;-84
2023/11/26 09:01:08;;;;;;;5.23;3.50;;;;;;;2.58;100.00;152027.41;4992638;28;20467;-84
2023/11/26 09:03:36;;;;;;;7.50;4.43;;;;;;;2.63;100.00;152040.25;4990703;28;20550;-84
2023/11/26 09:06:04;;;;;;;8.90;4.83;;;;;;;2.68;100.00;152054.41;4990476;28;20464;-84
2023/11/26 09:08:31;;;;;;;5.50;3.30;;;;;;;2.73;100.00;152065.97;4992728;28;20798;-83
2023/11/26 09:10:58;;;;;;;6.57;3.73;;;;;;;2.78;100.00;152080.13;4991851;28;20874;-84
2023/11/26 09:13:28;;;;;;;5.23;4.47;;;;;;;2.83;100.00;152091.75;5000055;28;20473;-84
2023/11/26 09:15:55;;;;;;;8.67;4.33;;;;;;;2.90;100.00;152109.75;4997443;28;20452;-83
2023/11/26 09:18:22;;;;;;;4.87;4.00;;;;;;;2.95;100.00;152122.59;4990916;28;20460;-83
2023/11/26 09:20:48;;;;;;;5.20;3.77;;;;;;;3.05;100.00;152149.63;4990217;28;20515;-83
2023/11/26 09:23:15;;;;;;;7.23;4.07;;;;;;;3.17;100.00;152179.22;4995668;28;20456;-84
2023/11/26 09:25:41;;;;;;;6.93;4.50;;;;;;;3.29;100.00;152208.81;4992069;28;20441;-83
2023/11/26 09:28:09;;;;;;;11.00;5.10;;;;;;;3.41;100.00;152241.00;4988946;28;20468;-83
2023/11/26 09:30:37;;;;;;;6.17;4.13;;;;;;;3.48;100.00;152259.00;4993132;28;20458;-83
2023/11/26 09:33:03;;;;;;;5.63;4.20;;;;;;;3.51;100.00;152266.75;4993577;28;20495;-83
2023/11/26 09:35:30;;;;;;;8.93;4.60;;;;;;;3.53;100.00;152270.59;4984984;28;20461;-83
2023/11/26 09:37:56;;;;;;;7.33;4.80;;;;;;;3.55;100.00;152277.03;4994215;28;20966;-83
2023/11/26 09:40:23;;;;;;;6.20;4.40;;;;;;;3.56;100.00;152278.31;4994978;28;20463;-83
2023/11/26 09:42:51;;;;;;;7.60;4.20;;;;;;;3.58;100.00;152283.47;4977697;28;20545;-83
2023/11/26 09:45:19;;;;;;;6.57;3.80;;;;;;;3.57;100.00;152282.16;4988777;28;20454;-83
2023/11/26 09:47:47;;;;;;;4.83;3.47;;;;;;;3.59;100.00;152286.03;4990046;28;20503;-83
2023/11/26 09:50:14;;;;;;;5.70;4.30;;;;;;;3.57;100.00;152282.16;4986219;28;20858;-84
2023/11/26 09:52:41;;;;;;;5.10;3.80;;;;;;;3.55;100.00;152277.03;4992198;28;20488;-83
2023/11/26 09:55:08;;;;;;;6.53;4.60;;;;;;;3.53;100.00;152271.88;4992311;28;20449;-84
2023/11/26 09:57:38;;;;;;;5.53;3.20;;;;;;;3.52;100.00;152269.28;5003185;28;20460;-84
2023/11/26 10:00:06;;;;;;;3.50;2.77;;;;;;;3.54;100.00;152274.47;4973741;28;20481;-84
2023/11/26 10:02:33;;;;;;;6.23;3.70;;;;;;;3.56;100.00;152278.31;4996370;28;20449;-83
2023/11/26 10:05:00;;;;;;;4.10;3.10;;;;;;;3.56;100.00;152278.31;4967376;28;20781;-84
2023/11/26 10:07:34;;;;;;;5.50;3.70;;;;;;;3.56;100.00;152279.63;4993185;28;20892;-83
2023/11/26 10:10:03;;;;;;;7.20;3.20;;;;;;;3.57;100.00;152280.91;4994308;28;21178;-83
2023/11/26 10:12:29;;;;;;;5.50;3.50;;;;;;;3.56;100.00;152279.63;4995005;28;20469;-85
2023/11/26 10:15:04;;;;;;;4.93;3.20;;;;;;;3.55;100.00;152277.03;4991379;28;20483;-84
2023/11/26 10:17:31;;;;;;;4.30;3.20;;;;;;;3.57;100.00;152280.91;4996121;28;20452;-84
2023/11/26 10:20:16;;;;;;;4.53;3.43;;;;;;;3.57;100.00;152282.16;4998444;28;20558;-84
2023/11/26 10:22:45;;;;;;;5.20;3.03;;;;;;;3.55;100.00;152277.03;4992707;28;20465;-84
2023/11/26 10:25:12;;;;;;;4.10;2.90;;;;;;;3.56;100.00;152278.31;4995908;28;20524;-83
2023/11/26 10:27:39;;;;;;;4.10;3.10;;;;;;;3.58;100.00;152284.75;4997308;28;20960;-84
2023/11/26 10:30:08;;;;;;;5.00;3.47;;;;;;;3.58;100.00;152284.75;4993266;28;20846;-84
2023/11/26 10:32:34;;;;;;;6.60;3.90;;;;;;;3.60;100.00;152289.88;4964945;28;20482;-83
2023/11/26 10:35:04;;;;;;;5.40;3.80;;;;;;;3.62;100.00;152293.78;4994019;28;20460;-83
2023/11/26 10:37:37;;;;;;;4.47;3.93;;;;;;;3.64;100.00;152300.22;4992545;28;21033;-84
2023/11/26 10:40:11;;;;;;;5.17;3.97;;;;;;;3.67;100.00;152307.94;4994163;28;20448;-83
2023/11/26 10:42:38;;;;;;;7.10;4.40;;;;;;;3.73;100.00;152320.81;4997018;28;20480;-83
2023/11/26 10:45:06;;;;;;;6.00;4.27;;;;;;;3.75;100.00;152325.94;4995882;28;20487;-84
2023/11/26 10:47:35;;;;;;;6.73;4.63;;;;;;;3.81;100.00;152341.41;4963950;28;20455;-83
2023/11/26 10:50:06;;;;;;;5.30;4.03;;;;;;;3.85;100.00;152351.69;4991552;28;20453;-82
2023/11/26 10:52:38;;;;;;;5.70;4.43;;;;;;;3.87;100.00;152356.81;4996096;28;20468;-82
2023/11/26 10:55:10;;;;;;;5.73;4.10;;;;;;;3.92;100.00;152369.75;4995084;28;20615;-82
2023/11/26 10:57:39;;;;;;;5.53;3.87;;;;;;;3.98;100.00;152385.16;4992715;28;20447;-82
2023/11/26 11:00:08;;;;;;;5.20;4.17;;;;;;;4.03;100.00;152398.03;4995192;28;20452;-83
2023/11/26 11:02:36;;;;;;;7.53;4.87;;;;;;;4.11;100.00;152418.66;4989581;28;20461;-82
2023/11/26 11:05:06;;;;;;;5.60;4.23;;;;;;;4.16;100.00;152431.53;4995973;28;20484;-84
2023/11/26 11:07:34;;;;;;;4.50;4.00;;;;;;;4.23;100.00;152449.59;4996366;28;20453;-82
2023/11/26 11:10:08;;;;;;;6.13;4.40;;;;;;;4.27;100.00;152461.16;4992262;28;20446;-83
2023/11/26 11:12:55;;;;;;;7.20;5.07;;;;;;;4.32;100.00;152474.03;4995664;28;20484;-83
2023/11/26 11:15:24;;;;;;;5.47;4.17;;;;;;;4.37;100.00;152485.63;4993521;28;20448;-83
2023/11/26 11:17:51;;;;;;;5.63;4.13;;;;;;;4.39;100.00;152490.81;4992596;28;20457;-83
2023/11/26 11:20:18;;;;;;;5.00;4.10;;;;;;;4.40;100.00;152493.34;4993270;28;20461;-83
2023/11/26 11:22:45;;;;;;;5.80;4.30;;;;;;;4.39;100.00;152490.81;4992207;28;20488;-83
2023/11/26 11:25:17;;;;;;;5.10;3.90;;;;;;;4.36;100.00;152483.06;4994499;28;20453;-83
2023/11/26 11:27:54;;;;;;;4.93;3.67;;;;;;;4.35;100.00;152480.47;4995820;28;20501;-83